YCF weather

Public forecast

Using degrees Celsius for public forecast. Weather courtesy of forecast.io.

Closest aviation weather report (METAR) to Cortes Bay Water Aerodrome

Closest report is Campbell River Airport, 14.8 nm (27.4 km) WSW. Retrieved 2020/08/15 20:00 UTC (23 minutes ago):

CYBL 152000Z 12006KT 350V130 30SM FEW050 FEW250 26/13 A3006 RMK CF1CI1 CF TR CI TR SLP182 DENSITY ALT 1500FT

Closest aviation forecast (TAF) to Cortes Bay Water Aerodrome

Closest forecast is Campbell River Airport, 14.8 nm (27.4 km) WSW. Retrieved 2020/08/15 19:00 UTC (1 hour ago):

TAF CYBL 151838Z 1519/1604 09006KT P6SM SKC BECMG 1521/1523 VRB03KT RMK NXT FCST BY 160100Z